Latest Weather Observations for Brisbane

IDQ60801

Issued at 10:32 pm EST Thursday 18 December 2014 (issued every 30 minutes, with the page automatically refreshed every 10 minutes)

About weather observations | Map of weather stations | Latest weather observations for QLD | Other Formats
Station Details ID: 040913 Name: BRISBANE Lat: -27.48 Lon: 153.04 Height: 8.13 m
Data from the previous 72 hours. | See also: Recent months at Brisbane
Date/Time
EST
Temp
°C
App
Temp
°C
Dew
Point
Rel
Hum
%
Delta-T
°C
Wind Press
QNH
hPa
Press
MSL
hPa
Rain
since 9 am
mm
Dir
 
Spd
km/h
Gust
km/h
Spd
kts
Gust
kts
18/10:30pm 23.5 27.1 21.2 87 1.5 NNW 4 7 2 4 1011.6 1011.6 12.4
18/10:00pm 23.5 27.2 21.4 88 1.4 ENE 4 9 2 5 1010.9 1010.9 12.4
18/09:30pm 23.1 27.4 21.2 89 1.2 CALM 0 0 0 0 1011.1 1011.1 12.4
18/09:00pm 23.2 27.6 21.3 89 1.2 CALM 0 4 0 2 1011.1 1011.1 12.4
18/08:30pm 23.1 26.7 21.2 89 1.2 NE 4 7 2 4 1010.6 1010.6 12.4
18/08:00pm 23.0 27.3 21.1 89 1.2 CALM 0 6 0 3 1010.3 1010.3 12.4
18/07:30pm 22.6 26.3 20.7 89 1.2 WSW 2 6 1 3 1010.6 1010.6 12.4
18/07:00pm 22.7 26.3 21.2 91 1.0 SW 4 7 2 4 1010.5 1010.5 12.4
18/06:30pm 22.6 25.4 20.9 90 1.1 SW 7 13 4 7 1009.7 1009.7 12.2
18/06:00pm 23.3 25.3 21.6 90 1.1 WSW 13 33 7 18 1010.1 1010.1 10.8
18/05:52pm 23.9 23.2 21.0 84 1.9 W 26 56 14 30 1009.9 1009.9 3.6
18/05:38pm 28.8 29.1 19.7 58 5.9 WNW 17 48 9 26 1007.9 1007.9 0.0
18/05:30pm 29.1 32.5 21.6 64 5.0 NNE 6 11 3 6 1006.2 1006.1 0.0
18/05:00pm 28.9 31.9 21.9 66 4.7 NNE 9 17 5 9 1005.7 1005.6 0.0
18/04:30pm 29.0 31.7 22.2 66 4.6 NNE 11 20 6 11 1005.3 1005.2 0.0
18/04:00pm 29.4 32.5 22.9 68 4.5 NNE 11 20 6 11 1005.2 1005.1 0.0
18/03:30pm 29.4 32.9 23.6 71 4.0 NE 11 22 6 12 1005.7 1005.6 0.0
18/03:00pm 30.1 34.1 23.8 69 4.4 NE 9 17 5 9 1005.8 1005.7 0.0
18/02:30pm 30.2 33.4 23.1 65 4.9 NE 11 20 6 11 1006.0 1005.9 0.0
18/02:00pm 31.4 34.3 23.2 61 5.7 NE 13 22 7 12 1006.4 1006.3 0.0
18/01:30pm 31.3 34.0 22.9 61 5.8 ENE 13 24 7 13 1007.0 1007.0 0.0
18/01:00pm 31.6 34.0 22.3 57 6.3 NE 13 22 7 12 1007.7 1007.7 0.0
18/12:30pm 32.1 35.8 23.3 59 6.1 ENE 9 20 5 11 1008.1 1008.1 0.0
18/12:00pm 31.3 34.5 22.3 58 6.1 NE 9 17 5 9 1008.6 1008.6 0.0
18/11:30am 30.9 34.2 22.5 61 5.7 NE 9 19 5 10 1009.0 1009.0 0.0
18/11:00am 30.4 33.6 22.3 62 5.5 ENE 9 17 5 9 1009.8 1009.8 0.0
18/10:30am 30.4 33.6 22.3 62 5.5 NNE 9 17 5 9 1010.0 1010.0 0.0
18/10:00am 30.3 33.6 22.5 63 5.3 NNW 9 17 5 9 1010.5 1010.5 0.0
18/09:30am 29.7 33.5 23.4 69 4.3 N 9 17 5 9 1010.5 1010.5 0.0
18/09:00am 29.0 32.5 22.2 66 4.6 NE 7 13 4 7 1010.5 1010.5 1.2
18/08:30am 27.3 30.3 22.0 73 3.6 ENE 9 13 5 7 1010.8 1010.8 1.2
18/08:00am 26.9 30.6 22.5 77 3.0 ENE 7 13 4 7 1011.1 1011.1 1.2
18/07:30am 26.1 30.1 22.8 82 2.2 ENE 6 13 3 7 1011.1 1011.1 1.2
18/07:00am 25.8 29.3 22.1 80 2.5 NE 7 13 4 7 1011.3 1011.3 1.2
18/06:30am 25.9 30.0 22.2 80 2.5 NE 4 9 2 5 1011.0 1011.0 1.2
18/06:00am 24.9 28.4 22.2 85 1.8 ENE 7 9 4 5 1010.6 1010.6 1.2
18/05:30am 24.7 28.7 22.0 85 1.8 ENE 4 11 2 6 1010.3 1010.3 1.2
18/05:00am 24.3 27.8 21.8 86 1.7 E 6 9 3 5 1009.8 1009.8 1.2
18/04:30am 24.4 28.4 22.7 90 1.1 WSW 6 11 3 6 1008.7 1008.7 1.2
18/04:00am 24.6 28.8 22.5 88 1.4 WSW 4 9 2 5 1007.7 1007.7 1.2
18/03:30am 25.2 29.2 22.7 86 1.7 SW 6 15 3 8 1008.3 1008.3 1.2
18/03:00am 25.4 29.9 22.9 86 1.7 SSW 4 9 2 5 1008.8 1008.8 1.2
18/02:30am 25.2 30.5 23.1 88 1.4 CALM 0 0 0 0 1009.2 1009.2 1.2
18/02:00am 25.6 30.8 22.9 85 1.8 CALM 0 0 0 0 1009.8 1009.8 1.2
18/01:30am 26.0 30.4 23.5 86 1.7 SW 6 13 3 7 1010.0 1010.0 1.2
18/01:00am 26.0 30.8 22.9 83 2.1 WSW 2 4 1 2 1009.7 1009.7 1.0
18/12:30am 25.7 30.5 22.8 84 2.0 SSE 2 4 1 2 1008.5 1008.5 1.0
18/12:00am 25.9 30.3 22.8 83 2.1 SW 4 6 2 3 1008.2 1008.2 1.0
 
Date/Time
EST
Temp
°C
App
Temp
°C
Dew
Point
Rel
Hum
%
Delta-T
°C
Wind Press
QNH
hPa
Press
MSL
hPa
Rain
since 9 am
mm
Dir
 
Spd
km/h
Gust
km/h
Spd
kts
Gust
kts
17/11:30pm 26.0 30.0 22.7 82 2.2 NE 6 9 3 5 1007.4 1007.4 1.0
17/11:00pm 26.8 32.1 23.7 83 2.1 N 2 6 1 3 1007.0 1007.0 0.0
17/10:30pm 26.8 31.5 23.9 84 2.0 SE 6 9 3 5 1007.4 1007.4 0.0
17/10:00pm 26.5 31.7 23.6 84 2.0 NNE 2 4 1 2 1006.9 1006.9 0.0
17/09:30pm 26.7 31.4 24.0 85 1.9 ENE 6 9 3 5 1006.7 1006.6 0.0
17/09:00pm 27.0 31.8 24.1 84 2.0 ENE 6 11 3 6 1006.4 1006.3 0.0
17/08:30pm 27.2 31.7 23.7 81 2.4 ENE 6 7 3 4 1005.9 1005.8 0.0
17/08:00pm 27.7 32.4 23.9 80 2.6 ENE 6 7 3 4 1005.6 1005.5 0.0
17/07:30pm 27.8 32.4 23.8 79 2.8 NE 6 13 3 7 1005.4 1005.3 0.0
17/07:00pm 28.1 32.5 23.5 76 3.2 NE 6 11 3 6 1004.9 1004.8 0.0
17/06:30pm 28.5 32.7 23.4 74 3.5 ENE 7 13 4 7 1004.4 1004.3 0.0
17/06:00pm 29.4 33.6 23.4 70 4.1 ENE 7 13 4 7 1004.0 1003.9 0.0
17/05:30pm 29.8 33.5 23.3 68 4.5 NE 9 19 5 10 1003.6 1003.5 0.0
17/05:00pm 30.5 33.9 22.7 63 5.3 NE 9 17 5 9 1003.5 1003.4 0.0
17/04:30pm 31.4 34.6 23.0 61 5.8 NE 11 20 6 11 1003.2 1003.1 0.0
17/04:00pm 30.9 34.4 22.8 62 5.6 NNE 9 20 5 11 1003.2 1003.1 0.0
17/03:30pm 32.3 35.5 22.4 56 6.8 NE 9 20 5 11 1003.1 1003.0 0.0
17/03:00pm 33.8 35.0 18.3 39 10.1 NE 9 17 5 9 1003.2 1003.1 0.0
17/02:30pm 34.6 36.5 19.8 41 9.8 NNE 9 19 5 10 1003.6 1003.5 0.0
17/02:00pm 34.0 35.6 20.0 43 9.3 NE 11 22 6 12 1003.9 1003.8 0.0
17/01:30pm 33.8 35.5 20.9 46 8.7 ENE 13 20 7 11 1004.2 1004.1 0.0
17/01:00pm 34.0 36.2 20.4 45 9.1 NE 9 17 5 9 1004.6 1004.5 0.0
17/12:30pm 34.0 36.0 20.0 43 9.3 NE 9 19 5 10 1004.8 1004.7 0.0
17/12:00pm 34.0 36.7 20.7 45 8.9 NE 7 17 4 9 1005.1 1005.0 0.0
17/11:30am 34.1 36.5 20.1 43 9.3 NE 7 15 4 8 1005.4 1005.3 0.0
17/11:00am 34.5 36.4 18.5 38 10.5 WNW 6 20 3 11 1005.7 1005.6 0.0
17/10:30am 33.5 35.9 18.8 41 9.6 N 4 9 2 5 1006.0 1005.9 0.0
17/10:00am 32.4 34.6 19.3 46 8.6 NW 6 9 3 5 1006.2 1006.1 0.0
17/09:30am 30.9 34.2 20.8 55 6.7 SE 4 7 2 4 1006.5 1006.4 0.0
17/09:00am 29.9 33.6 20.7 57 6.1 ENE 2 4 1 2 1006.8 1006.7 0.0
17/08:30am 28.8 32.1 20.8 62 5.3 W 4 7 2 4 1007.0 1007.0 0.0
17/08:00am 28.1 31.8 21.4 67 4.5 WSW 4 6 2 3 1007.1 1007.1 0.0
17/07:30am 27.1 31.0 21.2 70 3.9 WSW 2 6 1 3 1007.0 1007.0 0.0
17/07:00am 26.7 30.3 21.2 72 3.7 S 4 6 2 3 1006.9 1006.9 0.0
17/06:30am 25.9 30.3 21.3 76 3.0 CALM 0 2 0 1 1006.7 1006.6 0.0
17/06:00am 25.0 29.6 21.7 82 2.2 CALM 0 0 0 0 1006.5 1006.4 0.0
17/05:30am 23.6 28.3 21.9 90 1.1 CALM 0 2 0 1 1006.3 1006.2 0.0
17/05:00am 22.5 26.6 20.8 90 1.1 CALM 0 0 0 0 1005.9 1005.8 0.0
17/04:30am 22.7 26.7 20.6 88 1.4 CALM 0 0 0 0 1005.3 1005.2 0.0
17/04:00am 23.3 27.5 21.0 87 1.5 CALM 0 0 0 0 1005.2 1005.1 0.0
17/03:30am 23.5 27.8 21.2 87 1.5 CALM 0 0 0 0 1004.9 1004.8 0.0
17/03:00am 23.7 27.6 21.2 86 1.6 ESE 2 4 1 2 1004.8 1004.7 0.0
17/02:30am 23.8 27.3 21.1 85 1.8 NE 4 6 2 3 1005.1 1005.0 0.0
17/02:00am 23.6 27.0 20.9 85 1.8 ENE 4 6 2 3 1005.5 1005.4 0.0
17/01:30am 23.8 27.5 20.7 83 2.0 E 2 4 1 2 1006.3 1006.2 0.0
17/01:00am 24.0 27.6 20.5 81 2.3 SE 2 6 1 3 1006.4 1006.3 0.0
17/12:30am 24.1 27.6 20.4 80 2.4 SSW 2 4 1 2 1007.0 1007.0 0.0
17/12:00am 24.1 28.0 20.4 80 2.4 CALM 0 2 0 1 1007.0 1007.0 0.0
 
Date/Time
EST
Temp
°C
App
Temp
°C
Dew
Point
Rel
Hum
%
Delta-T
°C
Wind Press
QNH
hPa
Press
MSL
hPa
Rain
since 9 am
mm
Dir
 
Spd
km/h
Gust
km/h
Spd
kts
Gust
kts
16/11:30pm 24.3 28.2 20.4 79 2.5 CALM 0 0 0 0 1007.6 1007.6 0.0
16/11:00pm 24.4 27.5 20.3 78 2.7 S 4 6 2 3 1008.0 1008.0 0.0
16/10:30pm 24.5 28.0 20.4 78 2.7 W 2 4 1 2 1008.5 1008.5 0.0
16/10:00pm 24.5 27.7 20.6 79 2.6 NW 4 11 2 6 1007.8 1007.8 0.0
16/09:30pm 24.4 27.2 20.5 79 2.5 N 6 13 3 7 1006.8 1006.7 0.0
16/09:00pm 24.5 27.2 20.6 79 2.6 NNE 7 17 4 9 1006.0 1005.9 0.0
16/08:30pm 24.6 27.3 20.3 77 2.8 NNE 6 15 3 8 1006.2 1006.1 0.0
16/08:00pm 24.8 27.0 20.3 76 2.9 NE 9 17 5 9 1006.3 1006.2 0.0
16/07:30pm 24.8 26.6 20.3 76 2.9 NE 11 19 6 10 1006.2 1006.1 0.0
16/07:00pm 24.8 26.5 20.1 75 3.1 NE 11 19 6 10 1006.0 1005.9 0.0
16/06:30pm 24.8 26.3 19.8 74 3.2 NNE 11 22 6 12 1005.8 1005.7 0.0
16/06:00pm 25.2 27.0 19.6 71 3.6 NNE 9 22 5 12 1005.7 1005.6 0.0
16/05:30pm 25.4 26.8 19.5 70 3.8 NE 11 24 6 13 1005.5 1005.4 0.0
16/05:00pm 25.7 26.9 19.1 67 4.2 NE 11 20 6 11 1005.1 1005.0 0.0
16/04:30pm 26.5 27.2 18.9 63 4.9 NE 13 22 7 12 1004.9 1004.8 0.0
16/04:00pm 27.3 28.7 19.6 62 5.0 NE 11 20 6 11 1005.1 1005.0 0.0
16/03:30pm 27.6 28.8 19.1 59 5.5 NE 11 19 6 10 1005.4 1005.3 0.0
16/03:00pm 27.9 29.0 18.9 58 5.8 NE 11 24 6 13 1005.8 1005.7 0.0
16/02:30pm 28.3 29.3 18.7 56 6.2 NNE 11 19 6 10 1006.3 1006.2 0.0
16/02:00pm 28.6 29.6 18.7 55 6.4 NNE 11 20 6 11 1006.9 1006.9 0.0
16/01:30pm 28.3 29.1 18.1 54 6.5 NE 11 17 6 9 1007.0 1007.0 0.0
16/01:00pm 28.7 30.0 18.5 54 6.6 NE 9 15 5 8 1007.4 1007.4 0.0
16/12:30pm 28.2 28.9 18.0 54 6.5 ENE 11 17 6 9 1007.8 1007.8 0.0
16/12:00pm 28.3 29.2 18.4 55 6.3 ENE 11 19 6 10 1008.2 1008.2 0.0
16/11:30am 27.5 28.2 17.9 55 6.1 ENE 11 17 6 9 1008.6 1008.6 0.0
16/11:00am 27.5 28.6 17.1 53 6.5 ENE 7 13 4 7 1009.0 1009.0 0.0
16/10:30am 26.8 27.9 16.7 54 6.3 N 6 11 3 6 1009.5 1009.5 0.0
16/10:00am 26.9 28.2 17.1 55 6.1 ENE 6 11 3 6 1009.9 1009.9 0.0
16/09:30am 26.4 27.8 16.3 53 6.2 NW 4 9 2 5 1010.5 1010.5 0.0
16/09:00am 26.2 26.9 16.2 54 6.1 NNE 7 13 4 7 1010.5 1010.5 0.0
16/08:30am 25.4 26.6 16.0 56 5.7 NW 4 9 2 5 1010.7 1010.7 0.0
16/08:00am 24.9 26.1 15.8 57 5.5 N 4 7 2 4 1010.8 1010.8 0.0
16/07:30am 23.9 25.1 15.9 61 4.8 WNW 4 7 2 4 1011.3 1011.3 0.0
16/07:00am 23.6 24.7 15.6 61 4.8 SW 4 6 2 3 1011.1 1011.1 0.0
16/06:30am 23.2 24.9 16.3 65 4.2 SSE 2 6 1 3 1011.0 1011.0 0.0
16/06:00am 21.7 24.4 17.7 78 2.5 CALM 0 0 0 0 1010.6 1010.6 0.0
16/05:30am 19.4 21.4 17.9 91 0.9 SSW 4 6 2 3 1010.6 1010.6 0.0
16/05:00am 17.6 19.5 15.8 89 1.1 CALM 0 0 0 0 1010.3 1010.3 0.0
16/04:30am 17.8 19.7 15.8 88 1.2 CALM 0 0 0 0 1010.2 1010.2 0.0
16/04:00am 17.9 19.7 15.5 86 1.4 CALM 0 0 0 0 1010.2 1010.2 0.0
16/03:30am 18.1 19.9 15.4 84 1.6 CALM 0 0 0 0 1010.1 1010.1 0.0
16/03:00am 18.4 20.1 15.1 81 1.9 CALM 0 0 0 0 1010.3 1010.3 0.0
16/02:30am 18.9 20.7 15.4 80 2.1 CALM 0 0 0 0 1010.1 1010.1 0.0
16/02:00am 19.3 21.1 15.4 78 2.3 CALM 0 0 0 0 1010.1 1010.1 0.0
16/01:30am 19.1 20.9 15.6 80 2.1 CALM 0 0 0 0 1010.0 1010.0 0.0
16/01:00am 19.4 21.4 15.9 80 2.1 CALM 0 0 0 0 1010.2 1010.2 0.0
16/12:30am 19.8 21.7 15.7 77 2.4 CALM 0 0 0 0 1010.6 1010.6 0.0
16/12:00am 20.4 22.3 15.8 75 2.7 CALM 0 0 0 0 1011.1 1011.1 0.0
 
Date/Time
EST
Temp
°C
App
Temp
°C
Dew
Point
Rel
Hum
%
Delta-T
°C
Wind Press
QNH
hPa
Press
MSL
hPa
Rain
since 9 am
mm
Dir
 
Spd
km/h
Gust
km/h
Spd
kts
Gust
kts
15/11:30pm 20.8 22.8 16.0 74 2.9 CALM 0 6 0 3 1011.1 1011.1 0.0
15/11:00pm 21.0 22.9 15.8 72 3.1 CALM 0 0 0 0 1011.5 1011.5 0.0

Other Formats:

Comma delimited format used in spreadsheet applications
http://www.bom.gov.au/fwo/IDQ60801/IDQ60801.94576.axf

JavaScript Object Notation format (JSON) in row-major order
http://www.bom.gov.au/fwo/IDQ60801/IDQ60801.94576.json